createdAt,value
2019-02-14T00:00:18.864Z,36.07
2019-02-14T00:02:48.117Z,25.50
2019-02-14T00:05:16.812Z,22.27
2019-02-14T00:07:44.598Z,38.50
2019-02-14T00:10:12.294Z,37.93
2019-02-14T00:12:39.384Z,32.83
2019-02-14T00:15:07.618Z,48.80
2019-02-14T00:17:42.612Z,23.40
2019-02-14T00:20:11.406Z,42.17
2019-02-14T00:22:39.094Z,27.40
2019-02-14T00:25:05.991Z,37.50
2019-02-14T00:27:32.718Z,21.97
2019-02-14T00:30:01.821Z,29.20
2019-02-14T00:32:29.191Z,31.93
2019-02-14T00:34:56.648Z,28.47
2019-02-14T00:37:23.993Z,34.53
2019-02-14T00:39:52.422Z,38.40
2019-02-14T00:42:19.492Z,34.23
2019-02-14T00:44:47.305Z,29.23
2019-02-14T00:47:14.750Z,36.33
2019-02-14T00:49:42.539Z,44.73
2019-02-14T00:52:11.702Z,35.70
2019-02-14T00:54:39.170Z,41.40
2019-02-14T00:57:07.254Z,28.80
2019-02-14T00:59:34.189Z,27.13
2019-02-14T01:02:06.893Z,57.78
2019-02-14T01:04:34.266Z,39.73
2019-02-14T01:07:01.433Z,20.77
2019-02-14T01:09:29.978Z,26.70
2019-02-14T01:11:56.653Z,30.43
2019-02-14T01:14:23.803Z,24.20
2019-02-14T01:16:50.563Z,43.53
2019-02-14T01:19:18.430Z,47.73
2019-02-14T01:21:45.138Z,44.47
2019-02-14T01:24:12.142Z,36.70
2019-02-14T01:26:38.806Z,28.63
2019-02-14T01:29:05.900Z,50.80
2019-02-14T01:31:33.111Z,56.53
2019-02-14T01:34:01.447Z,33.57
2019-02-14T01:36:28.237Z,45.30
2019-02-14T01:38:55.955Z,26.70
2019-02-14T01:41:23.050Z,43.20
2019-02-14T01:43:51.170Z,34.40
2019-02-14T01:46:19.076Z,50.60
2019-02-14T01:48:52.347Z,55.20
2019-02-14T01:51:19.932Z,53.53
2019-02-14T01:53:46.897Z,41.00
2019-02-14T01:56:13.932Z,46.57
2019-02-14T01:58:41.214Z,43.13
2019-02-14T02:01:07.882Z,35.37
2019-02-14T02:03:35.664Z,42.87
2019-02-14T02:06:02.348Z,29.73
2019-02-14T02:08:29.620Z,46.53
2019-02-14T02:10:56.407Z,63.95
2019-02-14T02:13:23.345Z,32.00
2019-02-14T02:15:50.942Z,40.95
2019-02-14T02:18:20.614Z,50.83
2019-02-14T02:20:47.866Z,20.30
2019-02-14T02:23:15.484Z,60.87
2019-02-14T02:25:45.929Z,53.68
2019-02-14T02:28:12.929Z,40.50
2019-02-14T02:30:44.120Z,26.77
2019-02-14T02:33:11.535Z,43.08
2019-02-14T02:35:38.247Z,50.30
2019-02-14T02:38:08.850Z,60.33
2019-02-14T02:40:35.776Z,62.62
2019-02-14T02:43:03.324Z,45.10
2019-02-14T02:45:30.593Z,57.55
2019-02-14T02:47:57.939Z,35.73
2019-02-14T02:50:25.420Z,43.90
2019-02-14T02:52:52.653Z,49.83
2019-02-14T02:55:19.808Z,57.43
2019-02-14T02:57:56.283Z,50.90
2019-02-14T03:00:24.075Z,59.93
2019-02-14T03:02:51.791Z,54.20
2019-02-14T03:05:25.846Z,54.08
2019-02-14T03:07:52.934Z,93.00
2019-02-14T03:10:19.982Z,38.33
2019-02-14T03:12:47.791Z,66.40
2019-02-14T03:15:15.536Z,69.62
2019-02-14T03:17:42.207Z,79.17
2019-02-14T03:20:10.678Z,54.10
2019-02-14T03:22:37.581Z,62.73
2019-02-14T03:25:07.516Z,60.50
2019-02-14T03:27:34.619Z,52.90
2019-02-14T03:30:01.409Z,63.97
2019-02-14T03:32:29.064Z,56.37
2019-02-14T03:34:55.736Z,60.47
2019-02-14T03:37:22.969Z,41.42
2019-02-14T03:39:50.702Z,56.07
2019-02-14T03:42:17.386Z,18.00
2019-02-14T03:44:44.805Z,34.50
2019-02-14T03:47:11.739Z,58.90
2019-02-14T03:49:39.521Z,37.57
2019-02-14T03:52:06.508Z,39.53
2019-02-14T03:54:33.587Z,39.30
2019-02-14T03:57:01.506Z,69.35
2019-02-14T03:59:28.740Z,68.40
2019-02-14T04:01:55.965Z,68.67
2019-02-14T04:04:23.146Z,58.77
2019-02-14T04:06:49.826Z,25.43
2019-02-14T04:09:17.379Z,49.85
2019-02-14T04:11:44.553Z,31.23
2019-02-14T04:14:11.605Z,51.17
2019-02-14T04:16:39.068Z,39.92
2019-02-14T04:19:06.238Z,66.92
2019-02-14T04:21:33.545Z,48.52
2019-02-14T04:24:00.473Z,34.30
2019-02-14T04:26:27.246Z,36.25
2019-02-14T04:28:54.590Z,52.23
2019-02-14T04:31:22.502Z,39.20
2019-02-14T04:33:50.261Z,36.33
2019-02-14T04:36:18.702Z,60.85
2019-02-14T04:38:45.903Z,47.80
2019-02-14T04:41:13.149Z,37.10
2019-02-14T04:43:40.168Z,39.40
2019-02-14T04:46:07.256Z,70.08
2019-02-14T04:48:34.483Z,72.72
2019-02-14T04:51:24.331Z,65.30
2019-02-14T04:53:51.109Z,69.97
2019-02-14T04:56:18.350Z,72.72
2019-02-14T04:58:45.933Z,73.02
2019-02-14T05:01:17.106Z,68.20
2019-02-14T05:03:44.476Z,66.27
2019-02-14T05:06:11.859Z,41.23
2019-02-14T05:08:39.815Z,62.35
2019-02-14T05:11:07.344Z,48.68
2019-02-14T05:13:35.583Z,62.48
2019-02-14T05:16:03.458Z,55.75
2019-02-14T05:18:30.546Z,61.07
2019-02-14T05:21:02.773Z,60.90
2019-02-14T05:23:30.529Z,75.67
2019-02-14T05:25:57.325Z,50.95
2019-02-14T05:28:25.318Z,36.13
2019-02-14T05:30:52.375Z,34.23
2019-02-14T05:33:19.941Z,78.10
2019-02-14T05:35:47.162Z,66.02
2019-02-14T05:38:14.935Z,76.57
2019-02-14T05:40:42.247Z,82.33
2019-02-14T05:43:09.155Z,69.10
2019-02-14T05:45:36.682Z,70.72
2019-02-14T05:48:04.227Z,65.50
2019-02-14T05:50:30.911Z,67.00
2019-02-14T05:52:58.348Z,64.17
2019-02-14T05:55:25.054Z,77.13
2019-02-14T05:57:53.065Z,51.95
2019-02-14T06:00:20.054Z,55.05
2019-02-14T06:02:46.751Z,58.85
2019-02-14T06:05:14.066Z,58.28
2019-02-14T06:07:41.523Z,71.37
2019-02-14T06:10:08.385Z,66.60
2019-02-14T06:12:35.319Z,67.12
2019-02-14T06:15:03.223Z,70.05
2019-02-14T06:17:31.058Z,67.17
2019-02-14T06:19:57.974Z,72.25
2019-02-14T06:22:25.770Z,74.30
2019-02-14T06:24:52.579Z,68.55
2019-02-14T06:27:19.564Z,84.13
2019-02-14T06:29:46.533Z,77.45
2019-02-14T06:32:13.882Z,78.77
2019-02-14T06:34:41.336Z,74.20
2019-02-14T06:37:12.646Z,83.33
2019-02-14T06:39:40.141Z,67.72
2019-02-14T06:42:07.667Z,72.73
2019-02-14T06:44:38.636Z,48.70
2019-02-14T06:47:05.314Z,62.90
2019-02-14T06:49:32.819Z,37.60
2019-02-14T06:51:59.581Z,72.37
2019-02-14T06:54:26.805Z,32.57
2019-02-14T06:56:53.515Z,61.85
2019-02-14T06:59:20.690Z,47.53
2019-02-14T07:01:47.357Z,69.35
2019-02-14T07:04:14.559Z,38.98
2019-02-14T07:06:41.878Z,67.95
2019-02-14T07:09:08.549Z,66.00
2019-02-14T07:11:35.252Z,65.08
2019-02-14T07:14:02.060Z,48.75
2019-02-14T07:16:28.748Z,41.15
2019-02-14T07:18:56.140Z,72.03
2019-02-14T07:21:22.831Z,58.42
2019-02-14T07:23:50.024Z,47.67
2019-02-14T07:26:17.161Z,58.73
2019-02-14T07:28:44.316Z,50.55
2019-02-14T07:31:11.356Z,50.55
2019-02-14T07:33:38.411Z,57.03
2019-02-14T07:36:05.179Z,80.47
2019-02-14T07:38:31.870Z,38.17
2019-02-14T07:40:58.958Z,77.08
2019-02-14T07:43:26.262Z,66.20
2019-02-14T07:45:59.217Z,69.65
2019-02-14T07:48:26.965Z,57.87
2019-02-14T07:50:54.805Z,57.10
2019-02-14T07:53:22.704Z,59.45
2019-02-14T07:55:50.239Z,75.52
2019-02-14T07:58:16.955Z,71.47
2019-02-14T08:00:44.484Z,67.03
2019-02-14T08:03:11.846Z,78.37
2019-02-14T08:05:40.683Z,71.22
2019-02-14T08:08:08.138Z,23.87
2019-02-14T08:10:35.449Z,28.55
2019-02-14T08:13:02.249Z,59.33
2019-02-14T08:15:29.658Z,60.20
2019-02-14T08:17:57.240Z,52.83
2019-02-14T08:20:24.793Z,29.17
2019-02-14T08:22:51.494Z,40.00
2019-02-14T08:25:18.917Z,51.50
2019-02-14T08:27:46.866Z,62.62
2019-02-14T08:30:14.846Z,54.95
2019-02-14T08:32:41.671Z,50.50
2019-02-14T08:35:09.290Z,53.02
2019-02-14T08:37:44.975Z,62.27
2019-02-14T08:40:22.419Z,48.23
2019-02-14T08:42:50.384Z,43.08
2019-02-14T08:45:18.129Z,45.58
2019-02-14T08:47:45.322Z,64.03
2019-02-14T08:50:12.116Z,72.65
2019-02-14T08:52:39.890Z,36.98
2019-02-14T08:55:07.255Z,30.33
2019-02-14T08:57:34.415Z,42.95
2019-02-14T09:00:01.228Z,26.95
2019-02-14T09:02:28.042Z,35.68
2019-02-14T09:04:54.857Z,47.93
2019-02-14T09:07:22.521Z,38.40
2019-02-14T09:10:11.525Z,69.32
2019-02-14T09:12:39.817Z,45.73
2019-02-14T09:15:07.238Z,29.07
2019-02-14T09:17:35.052Z,63.10
2019-02-14T09:20:01.734Z,58.98
2019-02-14T09:22:31.967Z,24.77
2019-02-14T09:24:59.485Z,64.50
2019-02-14T09:27:26.789Z,48.78
2019-02-14T09:30:28.973Z,56.55
2019-02-14T09:32:55.815Z,53.10
2019-02-14T09:35:23.255Z,65.75
2019-02-14T09:37:50.508Z,43.55
2019-02-14T09:40:17.683Z,24.63
2019-02-14T09:42:44.410Z,60.48
2019-02-14T09:45:11.598Z,43.68
2019-02-14T09:47:38.672Z,43.13
2019-02-14T09:50:09.456Z,63.63
2019-02-14T09:52:44.379Z,66.03
2019-02-14T09:55:12.444Z,34.77
2019-02-14T09:57:40.926Z,46.70
2019-02-14T10:00:12.006Z,36.90
2019-02-14T10:02:38.875Z,49.97
2019-02-14T10:05:06.317Z,38.43
2019-02-14T10:07:33.555Z,64.07
2019-02-14T10:10:01.243Z,50.67
2019-02-14T10:12:27.903Z,49.20
2019-02-14T10:14:55.074Z,35.67
2019-02-14T10:17:22.834Z,27.40
2019-02-14T10:19:50.478Z,62.20
2019-02-14T10:22:17.975Z,65.67
2019-02-14T10:24:47.440Z,56.92
2019-02-14T10:27:15.448Z,21.47
2019-02-14T10:29:47.180Z,49.90
2019-02-14T10:32:15.831Z,37.77
2019-02-14T10:34:44.235Z,32.87
2019-02-14T10:37:12.303Z,45.57
2019-02-14T10:39:40.429Z,36.03
2019-02-14T10:42:09.015Z,63.03
2019-02-14T10:44:35.728Z,72.77
2019-02-14T10:47:02.702Z,24.83
2019-02-14T10:49:30.326Z,45.27
2019-02-14T10:51:58.089Z,32.53
2019-02-14T10:54:25.351Z,30.03
2019-02-14T10:56:54.536Z,109.13
2019-02-14T10:59:21.424Z,52.83
2019-02-14T11:01:48.648Z,41.67
2019-02-14T11:04:16.322Z,48.87
2019-02-14T11:06:43.405Z,42.23
2019-02-14T11:09:12.628Z,101.87
2019-02-14T11:11:39.893Z,49.80
2019-02-14T11:14:09.324Z,37.53
2019-02-14T11:16:38.868Z,41.10
2019-02-14T11:19:08.128Z,56.20
2019-02-14T11:21:35.255Z,65.60
2019-02-14T11:24:04.145Z,30.07
2019-02-14T11:26:31.475Z,29.10
2019-02-14T11:29:03.039Z,33.80
2019-02-14T11:31:29.735Z,35.30
2019-02-14T11:33:56.686Z,44.53
2019-02-14T11:36:23.389Z,52.00
2019-02-14T11:38:50.704Z,19.83
2019-02-14T11:41:18.470Z,36.57
2019-02-14T11:43:45.831Z,33.63
2019-02-14T11:46:13.072Z,36.10
2019-02-14T11:48:39.725Z,37.63
2019-02-14T11:51:06.786Z,23.50
2019-02-14T11:53:34.074Z,40.37
2019-02-14T11:56:01.255Z,38.87
2019-02-14T11:58:28.288Z,33.23
2019-02-14T12:00:55.345Z,37.90
2019-02-14T12:03:22.310Z,30.80
2019-02-14T12:05:49.554Z,31.70
2019-02-14T12:08:16.241Z,22.37
2019-02-14T12:10:43.666Z,53.00
2019-02-14T12:13:10.727Z,45.63
2019-02-14T12:15:38.607Z,43.77
2019-02-14T12:18:05.299Z,27.60
2019-02-14T12:20:31.971Z,26.50
2019-02-14T12:22:59.149Z,29.20
2019-02-14T12:25:26.428Z,29.17
2019-02-14T12:27:53.703Z,30.67
2019-02-14T12:30:21.056Z,22.37
2019-02-14T12:32:48.638Z,28.83
2019-02-14T12:35:16.156Z,17.50
2019-02-14T12:37:43.104Z,29.70
2019-02-14T12:40:10.566Z,27.07
2019-02-14T12:42:38.342Z,32.20
2019-02-14T12:45:07.402Z,24.20
2019-02-14T12:47:34.414Z,31.37
2019-02-14T12:50:01.103Z,15.17
2019-02-14T12:52:27.811Z,26.90
2019-02-14T12:54:55.658Z,20.30
2019-02-14T12:57:22.910Z,21.03
2019-02-14T12:59:50.442Z,23.17
2019-02-14T13:02:17.629Z,17.63
2019-02-14T13:04:44.329Z,20.13
2019-02-14T13:07:12.294Z,26.03
2019-02-14T13:09:40.120Z,24.83
2019-02-14T13:12:08.023Z,79.60
2019-02-14T13:14:36.010Z,24.13
2019-02-14T13:17:03.562Z,18.03
2019-02-14T13:19:30.233Z,20.10
2019-02-14T13:21:57.760Z,25.10
2019-02-14T13:24:25.527Z,18.87
2019-02-14T13:26:52.349Z,22.20
2019-02-14T13:29:19.251Z,20.93
2019-02-14T13:31:46.026Z,34.40
2019-02-14T13:34:13.208Z,22.43
2019-02-14T13:36:40.341Z,19.60
2019-02-14T13:39:07.628Z,18.43
2019-02-14T13:41:35.397Z,21.70
2019-02-14T13:44:02.610Z,11.67
2019-02-14T13:46:30.066Z,13.67
2019-02-14T13:48:56.782Z,24.77
2019-02-14T13:51:24.173Z,13.00
2019-02-14T13:53:51.720Z,22.73
2019-02-14T13:56:19.425Z,10.80
2019-02-14T13:58:46.253Z,21.50
2019-02-14T14:01:13.207Z,26.07
2019-02-14T14:03:40.739Z,15.13
2019-02-14T14:06:07.452Z,15.10
2019-02-14T14:08:34.383Z,13.07
2019-02-14T14:11:01.878Z,14.60
2019-02-14T14:13:28.535Z,13.60
2019-02-14T14:15:55.435Z,19.47
2019-02-14T14:18:23.005Z,12.13
2019-02-14T14:20:50.147Z,12.70
2019-02-14T14:23:16.842Z,12.03
2019-02-14T14:25:43.550Z,11.27
2019-02-14T14:28:11.247Z,14.57
2019-02-14T14:30:39.192Z,13.73
2019-02-14T14:33:06.054Z,14.40
2019-02-14T14:35:33.622Z,13.07
2019-02-14T14:38:01.118Z,15.70
2019-02-14T14:40:29.426Z,12.83
2019-02-14T14:43:31.706Z,15.20
2019-02-14T14:46:11.730Z,7.33
2019-02-14T14:48:40.782Z,15.43
2019-02-14T14:51:08.278Z,14.90
2019-02-14T14:53:35.727Z,14.37
2019-02-14T14:56:02.955Z,14.63
2019-02-14T14:58:30.305Z,16.00
2019-02-14T15:00:57.225Z,15.90
2019-02-14T15:03:24.310Z,17.03
2019-02-14T15:05:51.908Z,16.87
2019-02-14T15:08:19.892Z,14.90
2019-02-14T15:10:46.551Z,17.13
2019-02-14T15:13:13.380Z,19.40
2019-02-14T15:15:40.891Z,12.20
2019-02-14T15:18:09.281Z,13.30
2019-02-14T15:20:37.316Z,13.93
2019-02-14T15:23:04.230Z,14.43
2019-02-14T15:25:31.729Z,19.77
2019-02-14T15:27:58.570Z,15.43
2019-02-14T15:30:25.511Z,13.23
2019-02-14T15:32:52.207Z,15.13
2019-02-14T15:35:19.827Z,12.13
2019-02-14T15:37:47.300Z,11.07
2019-02-14T15:40:14.598Z,7.27
2019-02-14T15:42:41.326Z,16.37
2019-02-14T15:45:08.873Z,13.90
2019-02-14T15:47:35.566Z,22.13
2019-02-14T15:50:06.034Z,16.43
2019-02-14T15:52:33.770Z,18.33
2019-02-14T15:55:00.494Z,18.47
2019-02-14T15:57:27.459Z,21.83
2019-02-14T15:59:54.136Z,20.50
2019-02-14T16:02:21.265Z,19.40
2019-02-14T16:04:48.596Z,14.47
2019-02-14T16:07:17.568Z,17.10
2019-02-14T16:09:45.043Z,18.90
2019-02-14T16:12:13.012Z,19.77
2019-02-14T16:14:40.741Z,19.13
2019-02-14T16:17:11.840Z,19.43
2019-02-14T16:19:38.769Z,18.77
2019-02-14T16:22:05.995Z,21.67
2019-02-14T16:24:32.670Z,23.20
2019-02-14T16:27:01.157Z,22.17
2019-02-14T16:29:28.185Z,16.10
2019-02-14T16:31:54.965Z,19.17
2019-02-14T16:34:21.651Z,17.23
2019-02-14T16:36:48.327Z,19.03
2019-02-14T16:39:15.237Z,23.00
2019-02-14T16:41:42.218Z,17.53
2019-02-14T16:44:08.905Z,23.23
2019-02-14T16:46:35.682Z,26.40
2019-02-14T16:49:02.952Z,21.70
2019-02-14T16:51:30.096Z,23.63
2019-02-14T16:53:57.533Z,24.63
2019-02-14T16:56:24.480Z,18.67
2019-02-14T16:58:52.023Z,18.97
2019-02-14T17:01:19.166Z,23.93
2019-02-14T17:03:49.316Z,28.23
2019-02-14T17:06:19.384Z,25.90
2019-02-14T17:08:49.140Z,31.37
2019-02-14T17:11:18.402Z,27.10
2019-02-14T17:13:47.065Z,27.90
2019-02-14T17:16:16.225Z,21.10
2019-02-14T17:18:43.721Z,23.80
2019-02-14T17:21:12.184Z,24.80
2019-02-14T17:23:41.402Z,17.63
2019-02-14T17:26:10.090Z,22.57
2019-02-14T17:28:39.756Z,22.33
2019-02-14T17:31:09.410Z,27.40
2019-02-14T17:33:40.506Z,30.43
2019-02-14T17:36:10.137Z,24.70
2019-02-14T17:38:39.987Z,24.10
2019-02-14T17:41:08.430Z,19.67
2019-02-14T17:43:38.674Z,20.97
2019-02-14T17:46:07.883Z,24.47
2019-02-14T17:48:37.966Z,17.87
2019-02-14T17:51:06.515Z,25.20
2019-02-14T17:53:35.627Z,19.83
2019-02-14T17:56:05.157Z,23.50
2019-02-14T17:58:32.762Z,29.70
2019-02-14T18:01:01.337Z,26.10
2019-02-14T18:03:31.211Z,23.53
2019-02-14T18:06:01.241Z,23.90
2019-02-14T18:08:30.818Z,27.33
2019-02-14T18:11:00.296Z,24.63
2019-02-14T18:13:41.435Z,24.70
2019-02-14T18:16:09.805Z,20.60
2019-02-14T18:18:38.668Z,26.43
2019-02-14T18:21:07.083Z,21.47
2019-02-14T18:23:35.956Z,28.63
2019-02-14T18:26:04.613Z,24.57
2019-02-14T18:28:33.342Z,27.60
2019-02-14T18:31:01.863Z,28.13
2019-02-14T18:33:30.797Z,26.90
2019-02-14T18:35:59.261Z,26.17
2019-02-14T18:38:30.496Z,21.10
2019-02-14T18:41:04.347Z,28.07
2019-02-14T18:43:34.715Z,29.70
2019-02-14T18:46:03.596Z,21.10
2019-02-14T18:48:32.765Z,24.73
2019-02-14T18:51:02.803Z,20.27
2019-02-14T18:53:32.571Z,21.90
2019-02-14T18:56:02.480Z,27.80
2019-02-14T18:58:30.693Z,20.60
2019-02-14T19:00:59.553Z,22.63
2019-02-14T19:03:28.881Z,25.53
2019-02-14T19:05:58.911Z,25.10
2019-02-14T19:08:29.667Z,22.30
2019-02-14T19:10:58.249Z,20.27
2019-02-14T19:13:27.145Z,26.93
2019-02-14T19:15:57.676Z,19.03
2019-02-14T19:18:29.663Z,23.80
2019-02-14T19:21:00.172Z,32.43
2019-02-14T19:23:28.813Z,24.80
2019-02-14T19:25:57.211Z,23.00
2019-02-14T19:28:28.538Z,25.50
2019-02-14T19:31:00.036Z,22.40
2019-02-14T19:33:29.097Z,23.70
2019-02-14T19:35:57.938Z,22.37
2019-02-14T19:38:28.251Z,20.50
2019-02-14T19:40:57.435Z,25.00
2019-02-14T19:43:26.642Z,29.27
2019-02-14T19:45:55.519Z,23.60
2019-02-14T19:48:24.363Z,26.77
2019-02-14T19:50:53.280Z,25.67
2019-02-14T19:53:23.474Z,24.37
2019-02-14T19:55:52.463Z,24.57
2019-02-14T19:58:21.976Z,27.00
2019-02-14T20:00:54.114Z,26.30
2019-02-14T20:03:25.307Z,23.30
2019-02-14T20:05:54.889Z,21.00
2019-02-14T20:08:24.129Z,22.15
2019-02-14T20:10:53.486Z,37.53
2019-02-14T20:13:22.107Z,30.60
2019-02-14T20:15:51.441Z,25.43
2019-02-14T20:18:20.475Z,29.43
2019-02-14T20:20:49.301Z,21.43
2019-02-14T20:23:18.649Z,29.70
2019-02-14T20:25:47.642Z,23.90
2019-02-14T20:28:16.425Z,28.10
2019-02-14T20:30:46.233Z,28.80
2019-02-14T20:33:15.218Z,28.07
2019-02-14T20:35:44.633Z,20.23
2019-02-14T20:38:15.193Z,23.73
2019-02-14T20:40:46.721Z,24.93
2019-02-14T20:43:15.474Z,24.33
2019-02-14T20:45:44.865Z,23.25
2019-02-14T20:48:13.910Z,58.93
2019-02-14T20:50:43.403Z,29.40
2019-02-14T20:53:13.636Z,37.98
2019-02-14T20:55:43.164Z,36.33
2019-02-14T20:58:12.756Z,42.45
2019-02-14T21:00:41.427Z,49.40
2019-02-14T21:03:12.309Z,43.58
2019-02-14T21:05:40.888Z,33.95
2019-02-14T21:08:10.033Z,30.88
2019-02-14T21:10:39.347Z,33.77
2019-02-14T21:13:08.788Z,27.73
2019-02-14T21:15:38.821Z,30.70
2019-02-14T21:18:13.825Z,39.75
2019-02-14T21:20:46.068Z,35.52
2019-02-14T21:23:16.032Z,28.10
2019-02-14T21:25:45.604Z,25.08
2019-02-14T21:28:14.177Z,27.73
2019-02-14T21:30:42.919Z,31.73
2019-02-14T21:33:11.707Z,32.58
2019-02-14T21:35:41.903Z,36.93
2019-02-14T21:38:10.488Z,83.65
2019-02-14T21:40:40.241Z,123.00
2019-02-14T21:43:09.074Z,25.62
2019-02-14T21:45:37.513Z,45.30
2019-02-14T21:48:06.444Z,66.77
2019-02-14T21:50:36.437Z,56.50
2019-02-14T21:53:05.572Z,41.23
2019-02-14T21:55:35.508Z,21.35
2019-02-14T21:58:05.612Z,33.45
2019-02-14T22:00:34.913Z,26.85
2019-02-14T22:03:04.884Z,32.33
2019-02-14T22:05:34.950Z,46.65
2019-02-14T22:08:02.980Z,37.67
2019-02-14T22:10:41.630Z,35.38
2019-02-14T22:13:11.444Z,32.00
2019-02-14T22:15:40.010Z,28.32
2019-02-14T22:18:11.721Z,27.00
2019-02-14T22:20:43.982Z,27.82
2019-02-14T22:23:13.647Z,30.15
2019-02-14T22:25:48.052Z,26.80
2019-02-14T22:28:24.693Z,27.87
2019-02-14T22:30:54.344Z,28.42
2019-02-14T22:33:24.323Z,28.60
2019-02-14T22:35:52.999Z,27.40
2019-02-14T22:38:21.758Z,44.15
2019-02-14T22:40:55.157Z,33.38
2019-02-14T22:43:26.166Z,40.58
2019-02-14T22:45:55.539Z,34.08
2019-02-14T22:48:22.206Z,24.95
2019-02-14T22:50:49.737Z,44.70
2019-02-14T22:53:16.453Z,26.95
2019-02-14T22:55:43.762Z,23.38
2019-02-14T22:58:10.444Z,26.65
2019-02-14T23:00:41.009Z,20.30
2019-02-14T23:03:09.088Z,26.07
2019-02-14T23:05:36.678Z,64.05
2019-02-14T23:08:03.677Z,30.08
2019-02-14T23:10:31.350Z,25.32
2019-02-14T23:13:00.607Z,27.73
2019-02-14T23:15:27.792Z,25.77
2019-02-14T23:17:54.837Z,23.27
2019-02-14T23:20:22.194Z,27.77
2019-02-14T23:22:49.199Z,29.57
2019-02-14T23:25:16.297Z,26.82
2019-02-14T23:27:42.980Z,20.43
2019-02-14T23:30:10.946Z,26.70
2019-02-14T23:32:38.212Z,28.27
2019-02-14T23:35:05.434Z,27.58
2019-02-14T23:37:34.518Z,25.23
2019-02-14T23:40:01.289Z,26.42
2019-02-14T23:42:31.515Z,24.82
2019-02-14T23:44:59.257Z,22.70
2019-02-14T23:47:25.956Z,22.13
2019-02-14T23:49:53.967Z,25.43
2019-02-14T23:52:21.097Z,26.97
2019-02-14T23:54:48.042Z,25.72
2019-02-14T23:57:15.823Z,27.17
2019-02-14T23:59:43.371Z,27.67
